Flight Track Log - Related Links

Times and Time Zones

All times are in EDT time to prevent confusion due to time zone crossing. See the N498QS flight status page for this flight to view local times or setup timezone preferences in your user account.

Time Position Orientation Groundspeed Altitude Reporting Facility
EDT Latitude Longitude Course Direction KTS MPH feet Rate Location/Type
Thu 03:29:34 PM 38.4850 -122.7931 113° Southeast 190 219 1,700  Level Oakland Center
Thu 03:30:36 PM 38.4342 -122.7456 144° Southeast 248 285 4,900 3,366 Climbing Oakland Center
Thu 03:31:37 PM 38.4139 -122.6483 105° East 283 326 8,600 3,073 Climbing Oakland Center
Thu 03:32:00 PM 38.2028 -122.0736 117° Southeast  Level FlightAware Approximate
Thu 03:32:39 PM 38.3958 -122.5433 102° East 300 345 11,200  Level Oakland Center
Thu 03:33:00 PM 38.1554 -121.9495 113° Southeast  Level FlightAware Approximate
Thu 03:33:40 PM 38.3756 -122.4189 102° East 353 406 13,900  Level Oakland Center
Thu 03:34:00 PM 38.0993 -121.8316 119° Southeast  Level FlightAware Approximate
Thu 03:34:42 PM 38.3556 -122.2869 101° East 372 428 16,400  Level Oakland Center
Thu 03:35:00 PM 38.0469 -121.7074 113° Southeast  Level FlightAware Approximate
Thu 03:35:43 PM 38.3311 -122.1464 102° East 396 456 18,800  Level Oakland Center
Thu 03:36:44 PM 38.3078 -122.0011 102° East 411 473 21,400 2,439 Climbing Oakland Center
Thu 03:37:46 PM 38.2789 -121.8233 102° East 423 487 23,800 2,195 Climbing Oakland Center
Thu 03:38:47 PM 38.2519 -121.6689 102° East 439 505 25,900 1,805 Climbing Oakland Center
Thu 03:39:49 PM 38.2264 -121.5111 102° East 452 520 27,500 1,561 Climbing Oakland Center
Thu 03:40:50 PM 38.2008 -121.3636 102° East 472 543 29,100 2,164 Climbing Oakland Center
Thu 03:41:51 PM 38.1675 -121.1653 102° East 481 554 31,900 2,439 Climbing Oakland Center
Thu 03:42:53 PM 38.1392 -121.0019 102° East 479 551 34,100 1,512 Climbing Oakland Center
Thu 03:43:54 PM 38.1108 -120.8383 102° East 477 549 35,000 439 Climbing Oakland Center
Thu 03:44:56 PM 38.0817 -120.6689 102° East 490 564 35,000  Level Oakland Center
Thu 03:45:57 PM 38.0508 -120.4983 103° East 496 571 35,000  Level Oakland Center
Thu 03:46:58 PM 38.0203 -120.3272 103° East 498 573 35,000  Level Oakland Center
Thu 03:48:00 PM 37.9894 -120.1569 103° East 495 570 35,000  Level Oakland Center
Thu 03:49:01 PM 37.9594 -119.9889 103° East 490 564 35,000  Level Oakland Center
Thu 03:50:03 PM 37.9219 -119.7853 103° East 492 566 35,000  Level Oakland Center
Thu 03:51:04 PM 37.8922 -119.6161 103° East 494 568 35,000  Level Oakland Center
Thu 03:52:05 PM 37.8594 -119.4481 104° East 492 566 35,000  Level Oakland Center
Thu 03:53:07 PM 37.8272 -119.2814 104° East 489 563 35,000  Level Oakland Center
Thu 03:54:08 PM 37.7950 -119.1111 103° East 495 570 35,000  Level Oakland Center
Thu 03:55:09 PM 37.7639 -118.9444 103° East 489 563 35,000  Level Oakland Center
Thu 03:56:11 PM 37.7275 -118.7578 104° East 493 567 35,000  Level Oakland Center
Thu 03:57:12 PM 37.6961 -118.5919 103° East 488 562 35,000  Level Oakland Center
Thu 03:58:14 PM 37.6628 -118.4247 104° East 492 566 35,000  Level Oakland Center
Thu 03:59:15 PM 37.6289 -118.2572 104° East 493 567 35,000  Level Oakland Center
Thu 04:00:16 PM 37.5964 -118.0906 104° East 492 566 35,000  Level Oakland Center
Thu 04:01:18 PM 37.5622 -117.9225 104° East 495 570 35,000 -146 Level Oakland Center
Thu 04:02:19 PM 37.5286 -117.7583 104° East 490 564 34,700 -927 Descending Oakland Center
Thu 04:03:21 PM 37.4881 -117.5572 104° East 495 570 33,100 -829 Descending Oakland Center
Thu 04:04:22 PM 37.4492 -117.3900 106° East 498 573 33,000 -49 Descending Oakland Center
Thu 04:05:23 PM 37.3711 -117.2494 125° Southeast 498 573 33,000  Level Oakland Center
Thu 04:06:25 PM 37.2650 -117.1389 140° Southeast 503 579 33,000  Level Oakland Center
Thu 04:06:53 PM 37.2214 -117.1014 146° Southeast 494 568 33,000  Level Los Angeles Center
Thu 04:07:55 PM 37.1075 -117.0056 146° Southeast 490 564 33,000  Level Los Angeles Center
Thu 04:08:27 PM 37.0389 -116.9483 146° Southeast 491 565 33,000  Level Oakland Center
Thu 04:09:29 PM 36.9264 -116.8533 146° Southeast 486 559 33,000 -783 Level Oakland Center
Thu 04:09:59 PM 36.8581 -116.7961 146° Southeast 490 564 31,800 -2,413 Descending Los Angeles Center
Thu 04:11:01 PM 36.7533 -116.6828 139° Southeast 497 572 29,300 -2,371 Descending Los Angeles Center
Thu 04:12:03 PM 36.6678 -116.5572 130° Southeast 478 550 26,900 -1,597 Descending Los Angeles Center
Thu 04:13:05 PM 36.5842 -116.4383 131° Southeast 460 529 26,000 -435 Descending Los Angeles Center
Thu 04:14:07 PM 36.4981 -116.3153 131° Southeast 458 527 26,000 -1,597 Level Los Angeles Center
Thu 04:15:09 PM 36.4025 -116.1775 131° Southeast 461 531 22,700 -3,000 Descending Los Angeles Center
Thu 04:16:11 PM 36.3250 -116.0656 131° Southeast 429 494 19,800 -2,625 Descending Los Angeles Center
Thu 04:17:01 PM 36.2589 -115.9842 135° Southeast 403 464 17,800 -2,054 Descending Los Angeles Center
Thu 04:18:02 PM 36.1958 -115.8794 127° Southeast 348 400 16,000 -1,328 Descending Los Angeles Center
Thu 04:19:03 PM 36.1308 -115.7964 134° Southeast 323 372 15,100 -1,370 Descending Los Angeles Center
Thu 04:20:09 PM 36.0556 -115.7253 143° Southeast 318 366 13,100 -1,500 Descending Los Angeles Center
Thu 04:20:31 PM 36.0453 -115.7150 141° Southeast 319 367 12,900 -1,869 Descending Los Angeles Center
Thu 04:21:10 PM 35.9836 -115.6608 145° Southeast 305 351 11,200 -1,541 Descending Los Angeles Center
Thu 04:21:45 PM 35.9625 -115.6408 143° Southeast 302 348 11,000 -194 Descending Los Angeles Center
Thu 04:22:12 PM 35.9147 -115.6008 146° Southeast 300 345 11,000  Level Los Angeles Center
Thu 04:22:47 PM 35.8797 -115.5667 142° Southeast 298 343 11,000  Level Los Angeles Center
Thu 04:23:18 PM 35.8456 -115.5408 148° Southeast 263 303 11,000  Level Los Angeles Center
Thu 04:23:50 PM 35.8178 -115.5142 142° Southeast 277 319 11,000 -197 Level Los Angeles Center
Thu 04:24:19 PM 35.7944 -115.4833 133° Southeast 251 289 10,800 -590 Descending Los Angeles Center
Thu 04:24:51 PM 35.7869 -115.4453 104° East 259 298 10,400 -787 Descending Los Angeles Center
Thu 04:25:20 PM 35.7775 -115.4039 106° East 237 273 10,000 -677 Descending Los Angeles Center
Thu 04:25:53 PM 35.7706 -115.3689 104° East 244 281 9,700 -1,102 Descending Los Angeles Center
Thu 04:26:09 PM 35.7644 -115.3447 107° East 231 266 9,100 -1,742 Descending Los Angeles Center
Thu 04:26:55 PM 35.7544 -115.2939 104° East 235 270 7,900 -1,791 Descending Los Angeles Center
Thu 04:27:16 PM 35.7439 -115.2586 110° East 230 265 7,100 -871 Descending Los Angeles Center
Thu 04:27:57 PM 35.7358 -115.2192 104° East 231 266 7,000 -98 Descending Los Angeles Center
Thu 04:28:17 PM 35.7489 -115.1933 58° Northeast 208 239 7,000 -871 Level Los Angeles Center
Thu 04:28:59 PM 35.7906 -115.1817 13° North 215 247 6,100 -1,000 Descending Los Angeles Center
Thu 04:29:17 PM 35.8081 -115.1767 13° North 210 242 6,000 -774 Descending Los Angeles Center
Thu 04:30:01 PM 35.8464 -115.1647 14° North 211 243 5,300 -1,180 Descending Los Angeles Center
Thu 04:30:18 PM 35.8608 -115.1619 North 200 230 4,800 -581 Descending Los Angeles Center
Thu 04:31:03 PM 35.8953 -115.1497 16° North 208 239 4,700 -787 Descending Los Angeles Center
Thu 04:31:19 PM 35.9097 -115.1486 North 161 185 4,000 -1,325 Descending Los Angeles Center
Thu 04:32:20 PM 35.9436 -115.1347 18° North 127 146 3,000 -984 Descending Los Angeles Center
Thu 04:34:00 PM 35.9667 -115.1333 338° Northwest  Level FlightAware Approximate
Thu 04:41:00 PM 35.9729 -115.1344 338° Northwest  Level Estimated

Login

Don't have an account? Register now (free) for customized features, flight alerts, and more!